Hauptseite
METAR-TAF:

METAR-TAF

Flughäfen :

Flughafen Berlin-Tegel

Berlin, Deutschland

Breite: 52-34N, Länge: 013-19E, Höhe: 37 m

Beobachtung

Neuester Wetterbericht von vor 13 Minuten, um 20:50 UTC
Wind 7 kt aus Nordost, variierte zwischen Nord und Ost/Nordost
Temperatur 14°C
Luftfeuchtigkeit 41%
Luftdruck 1028 hPa
Sichtweite 10 km oder mehr
keine Wolken unter 1500 m und keine Kumulonimbus oder Gewitterwolken

METAR: EDDT 202050Z 04007KT 010V070 CAVOK 14/01 Q1028 NOSIG

Zeit: 23:03 (21:03 UTC)

Prognose

Neuester Wetterbericht von vor 4 Stunden und 3 Minuten, um 17:00 UTC
Gültige Prognose vom 20 um 18 UTC bis 21 um 18 UTC
Wind 4 kt aus Nord/Nordost
Sichtweite 10 km oder mehr
keine Wolken unter 1500 m und keine Kumulonimbus oder Gewitterwolken
Übergehend zu
vom 21 um 04 UTC bis 21 um 07 UTC
Wind 5 kt aus Ost

TAF: EDDT 201700Z 2018/2118 03004KT CAVOK BECMG 2104/2107 09005KT

Wetterbeobachtungen und Prognosen von mehr als 4000 Flughäfen (METAR und TAF Bericht).

Die verfügbaren Stationen werden durch gelbe und rote Markierungen auf der Karte dargestellt.

Führen Sie die Maus auf sie, um den Namen der Station zu sehen.

Darauf klicken, um die Beobachtung von Wetterbeobachtungen und Prognosen zu sehen.

Um die Karte zu ändern : klicken Sie auf den grünen Tasten mit einem schwarzen Kreuz Zum Vergrößern, auf den grünen Button mit einem Gedankenstrich zu verkleinern, oder auf die grünen Pfeile für benachbarte Karten.


METAR-TAF: